sensor_id;sensor_type;location;lat;lon;timestamp;pressure;altitude;pressure_sealevel;temperature;humidity
6094;BME280;19964;42.060;24.700;2023-03-23T00:01:04;97399.81;;;9.44;100.00
6094;BME280;19964;42.060;24.700;2023-03-23T00:03:31;97473.00;;;9.74;100.00
6094;BME280;19964;42.060;24.700;2023-03-23T00:05:58;97454.94;;;9.56;100.00
6094;BME280;19964;42.060;24.700;2023-03-23T00:08:32;97469.75;;;9.78;100.00
6094;BME280;19964;42.060;24.700;2023-03-23T00:10:59;97475.19;;;9.88;100.00
6094;BME280;19964;42.060;24.700;2023-03-23T00:13:28;97476.91;;;9.65;100.00
6094;BME280;19964;42.060;24.700;2023-03-23T00:15:55;97464.31;;;9.39;100.00
6094;BME280;19964;42.060;24.700;2023-03-23T00:18:24;97359.06;;;8.80;100.00
6094;BME280;19964;42.060;24.700;2023-03-23T00:20:52;97364.66;;;8.95;100.00
6094;BME280;19964;42.060;24.700;2023-03-23T00:23:21;97473.06;;;9.67;100.00
6094;BME280;19964;42.060;24.700;2023-03-23T00:25:52;97482.81;;;9.54;100.00
6094;BME280;19964;42.060;24.700;2023-03-23T00:28:22;97478.13;;;9.62;100.00
6094;BME280;19964;42.060;24.700;2023-03-23T00:30:55;97457.78;;;9.66;100.00
6094;BME280;19964;42.060;24.700;2023-03-23T00:33:22;97475.97;;;9.89;100.00
6094;BME280;19964;42.060;24.700;2023-03-23T00:35:49;97479.91;;;9.92;100.00
6094;BME280;19964;42.060;24.700;2023-03-23T00:38:19;97410.84;;;9.21;100.00
6094;BME280;19964;42.060;24.700;2023-03-23T00:40:46;97482.00;;;9.83;100.00
6094;BME280;19964;42.060;24.700;2023-03-23T00:43:15;97475.28;;;9.82;100.00
6094;BME280;19964;42.060;24.700;2023-03-23T00:45:43;97478.22;;;9.85;100.00
6094;BME280;19964;42.060;24.700;2023-03-23T00:48:18;97449.78;;;9.67;100.00
6094;BME280;19964;42.060;24.700;2023-03-23T00:50:45;97381.97;;;9.24;100.00
6094;BME280;19964;42.060;24.700;2023-03-23T00:53:12;97468.75;;;9.79;100.00
6094;BME280;19964;42.060;24.700;2023-03-23T00:55:40;97465.84;;;9.87;100.00
6094;BME280;19964;42.060;24.700;2023-03-23T00:58:07;97445.28;;;9.93;100.00
6094;BME280;19964;42.060;24.700;2023-03-23T01:00:35;97463.75;;;10.08;100.00
6094;BME280;19964;42.060;24.700;2023-03-23T01:03:02;97461.81;;;9.92;100.00
6094;BME280;19964;42.060;24.700;2023-03-23T01:05:33;97445.94;;;9.88;100.00
6094;BME280;19964;42.060;24.700;2023-03-23T01:08:00;97449.34;;;10.00;100.00
6094;BME280;19964;42.060;24.700;2023-03-23T01:10:27;97457.19;;;9.94;100.00
6094;BME280;19964;42.060;24.700;2023-03-23T01:12:58;97451.03;;;9.35;100.00
6094;BME280;19964;42.060;24.700;2023-03-23T01:15:25;97452.91;;;9.28;100.00
6094;BME280;19964;42.060;24.700;2023-03-23T01:17:53;97451.84;;;9.18;100.00
6094;BME280;19964;42.060;24.700;2023-03-23T01:20:20;97411.34;;;9.12;100.00
6094;BME280;19964;42.060;24.700;2023-03-23T01:22:47;97447.22;;;9.38;100.00
6094;BME280;19964;42.060;24.700;2023-03-23T01:25:14;97388.03;;;9.00;100.00
6094;BME280;19964;42.060;24.700;2023-03-23T01:27:41;97462.22;;;9.47;100.00
6094;BME280;19964;42.060;24.700;2023-03-23T01:30:11;97469.25;;;9.40;100.00
6094;BME280;19964;42.060;24.700;2023-03-23T01:32:38;97463.38;;;9.51;100.00
6094;BME280;19964;42.060;24.700;2023-03-23T01:35:07;97476.19;;;9.58;100.00
6094;BME280;19964;42.060;24.700;2023-03-23T01:37:35;97468.41;;;9.28;100.00
6094;BME280;19964;42.060;24.700;2023-03-23T01:40:02;97476.88;;;9.35;100.00
6094;BME280;19964;42.060;24.700;2023-03-23T01:42:32;97441.16;;;9.14;100.00
6094;BME280;19964;42.060;24.700;2023-03-23T01:45:27;97493.25;;;9.47;100.00
6094;BME280;19964;42.060;24.700;2023-03-23T01:48:00;97477.22;;;9.21;100.00
6094;BME280;19964;42.060;24.700;2023-03-23T01:50:33;97476.09;;;9.35;100.00
6094;BME280;19964;42.060;24.700;2023-03-23T01:53:05;97476.31;;;9.15;100.00
6094;BME280;19964;42.060;24.700;2023-03-23T01:55:36;97376.19;;;8.38;100.00
6094;BME280;19964;42.060;24.700;2023-03-23T01:58:05;97474.16;;;9.30;100.00
6094;BME280;19964;42.060;24.700;2023-03-23T02:00:33;97464.06;;;9.11;100.00
6094;BME280;19964;42.060;24.700;2023-03-23T02:03:00;97468.41;;;8.92;100.00
6094;BME280;19964;42.060;24.700;2023-03-23T02:05:30;97472.56;;;9.11;100.00
6094;BME280;19964;42.060;24.700;2023-03-23T02:08:00;97477.22;;;9.21;100.00
6094;BME280;19964;42.060;24.700;2023-03-23T02:10:30;97473.59;;;9.28;100.00
6094;BME280;19964;42.060;24.700;2023-03-23T02:12:57;97474.16;;;9.30;100.00
6094;BME280;19964;42.060;24.700;2023-03-23T02:15:25;97434.84;;;9.10;100.00
6094;BME280;19964;42.060;24.700;2023-03-23T02:18:01;97476.72;;;9.48;100.00
6094;BME280;19964;42.060;24.700;2023-03-23T02:20:52;97474.50;;;9.34;100.00
6094;BME280;19964;42.060;24.700;2023-03-23T02:23:53;97471.19;;;9.45;100.00
6094;BME280;19964;42.060;24.700;2023-03-23T02:26:34;97473.72;;;9.33;100.00
6094;BME280;19964;42.060;24.700;2023-03-23T02:32:34;97481.59;;;9.38;100.00
6094;BME280;19964;42.060;24.700;2023-03-23T02:35:12;97479.34;;;9.30;100.00
6094;BME280;19964;42.060;24.700;2023-03-23T02:37:45;97470.50;;;9.38;100.00
6094;BME280;19964;42.060;24.700;2023-03-23T02:40:17;97477.97;;;9.28;100.00
6094;BME280;19964;42.060;24.700;2023-03-23T02:42:49;97485.13;;;9.44;100.00
6094;BME280;19964;42.060;24.700;2023-03-23T02:45:19;97461.03;;;9.32;100.00
6094;BME280;19964;42.060;24.700;2023-03-23T02:47:50;97479.16;;;9.43;100.00
6094;BME280;19964;42.060;24.700;2023-03-23T02:50:22;97476.94;;;9.47;100.00
6094;BME280;19964;42.060;24.700;2023-03-23T02:52:52;97490.13;;;9.57;100.00
6094;BME280;19964;42.060;24.700;2023-03-23T02:55:21;97492.72;;;9.57;100.00
6094;BME280;19964;42.060;24.700;2023-03-23T02:57:50;97500.53;;;9.68;100.00
6094;BME280;19964;42.060;24.700;2023-03-23T03:00:19;97502.59;;;9.78;100.00
6094;BME280;19964;42.060;24.700;2023-03-23T03:02:47;97472.31;;;9.67;100.00
6094;BME280;19964;42.060;24.700;2023-03-23T03:05:24;97490.88;;;9.75;100.00
6094;BME280;19964;42.060;24.700;2023-03-23T03:08:06;97500.81;;;9.78;100.00
6094;BME280;19964;42.060;24.700;2023-03-23T03:10:43;97498.22;;;9.78;100.00
6094;BME280;19964;42.060;24.700;2023-03-23T03:13:21;97478.97;;;9.27;100.00
6094;BME280;19964;42.060;24.700;2023-03-23T03:15:55;97489.56;;;9.19;100.00
6094;BME280;19964;42.060;24.700;2023-03-23T03:18:32;97489.75;;;9.24;100.00
6094;BME280;19964;42.060;24.700;2023-03-23T03:21:05;97495.41;;;9.14;100.00
6094;BME280;19964;42.060;24.700;2023-03-23T03:23:34;97490.41;;;9.01;100.00
6094;BME280;19964;42.060;24.700;2023-03-23T03:26:07;97480.19;;;9.06;100.00
6094;BME280;19964;42.060;24.700;2023-03-23T03:28:36;97489.09;;;9.10;100.00
6094;BME280;19964;42.060;24.700;2023-03-23T03:31:04;97501.06;;;9.23;100.00
6094;BME280;19964;42.060;24.700;2023-03-23T03:33:32;97507.53;;;9.32;100.00
6094;BME280;19964;42.060;24.700;2023-03-23T03:36:03;97515.59;;;9.42;100.00
6094;BME280;19964;42.060;24.700;2023-03-23T03:38:41;97513.25;;;9.52;100.00
6094;BME280;19964;42.060;24.700;2023-03-23T03:41:09;97520.66;;;9.48;100.00
6094;BME280;19964;42.060;24.700;2023-03-23T03:43:36;97467.13;;;9.19;100.00
6094;BME280;19964;42.060;24.700;2023-03-23T03:46:03;97522.88;;;9.63;100.00
6094;BME280;19964;42.060;24.700;2023-03-23T03:48:30;97529.50;;;9.77;100.00
6094;BME280;19964;42.060;24.700;2023-03-23T03:50:57;97524.09;;;9.78;100.00
6094;BME280;19964;42.060;24.700;2023-03-23T03:53:27;97512.94;;;9.78;100.00
6094;BME280;19964;42.060;24.700;2023-03-23T03:55:54;97517.94;;;9.91;100.00
6094;BME280;19964;42.060;24.700;2023-03-23T03:58:25;97533.78;;;10.13;100.00
6094;BME280;19964;42.060;24.700;2023-03-23T04:04:09;97532.19;;;10.30;100.00
6094;BME280;19964;42.060;24.700;2023-03-23T04:06:36;97538.34;;;9.99;100.00
6094;BME280;19964;42.060;24.700;2023-03-23T04:09:05;97526.78;;;9.83;100.00
6094;BME280;19964;42.060;24.700;2023-03-23T04:11:33;97535.44;;;9.77;100.00
6094;BME280;19964;42.060;24.700;2023-03-23T04:14:00;97534.66;;;9.77;100.00
6094;BME280;19964;42.060;24.700;2023-03-23T04:16:27;97526.84;;;9.65;100.00
6094;BME280;19964;42.060;24.700;2023-03-23T04:18:55;97536.69;;;9.75;100.00
6094;BME280;19964;42.060;24.700;2023-03-23T04:21:22;97523.00;;;9.68;100.00
6094;BME280;19964;42.060;24.700;2023-03-23T04:23:54;97450.69;;;9.14;100.00
6094;BME280;19964;42.060;24.700;2023-03-23T04:26:22;97534.97;;;9.69;100.00
6094;BME280;19964;42.060;24.700;2023-03-23T04:28:52;97530.13;;;9.72;100.00
6094;BME280;19964;42.060;24.700;2023-03-23T04:31:19;97528.59;;;9.83;100.00
6094;BME280;19964;42.060;24.700;2023-03-23T04:33:45;97531.75;;;9.55;100.00
6094;BME280;19964;42.060;24.700;2023-03-23T04:36:12;97535.47;;;9.59;100.00
6094;BME280;19964;42.060;24.700;2023-03-23T04:38:41;97537.47;;;9.57;100.00
6094;BME280;19964;42.060;24.700;2023-03-23T04:41:08;97539.84;;;9.59;100.00
6094;BME280;19964;42.060;24.700;2023-03-23T04:43:36;97547.59;;;9.77;100.00
6094;BME280;19964;42.060;24.700;2023-03-23T04:46:07;97553.47;;;9.84;100.00
6094;BME280;19964;42.060;24.700;2023-03-23T04:48:35;97551.88;;;9.83;100.00
6094;BME280;19964;42.060;24.700;2023-03-23T04:51:04;97555.88;;;9.97;100.00
6094;BME280;19964;42.060;24.700;2023-03-23T04:53:32;97554.78;;;10.05;100.00
6094;BME280;19964;42.060;24.700;2023-03-23T04:55:59;97498.13;;;9.55;99.11
6094;BME280;19964;42.060;24.700;2023-03-23T04:58:27;97556.72;;;10.09;99.19
6094;BME280;19964;42.060;24.700;2023-03-23T05:00:56;97557.75;;;10.08;97.69
6094;BME280;19964;42.060;24.700;2023-03-23T05:03:23;97543.78;;;10.09;99.55
6094;BME280;19964;42.060;24.700;2023-03-23T05:05:50;97548.13;;;10.27;98.28
6094;BME280;19964;42.060;24.700;2023-03-23T05:08:18;97550.59;;;10.74;97.71
6094;BME280;19964;42.060;24.700;2023-03-23T05:10:50;97557.38;;;11.10;92.22
6094;BME280;19964;42.060;24.700;2023-03-23T05:13:18;97563.09;;;11.35;87.91
6094;BME280;19964;42.060;24.700;2023-03-23T05:15:45;97560.63;;;11.40;86.06
6094;BME280;19964;42.060;24.700;2023-03-23T05:18:14;97565.81;;;11.29;85.50
6094;BME280;19964;42.060;24.700;2023-03-23T05:20:41;97562.53;;;11.33;86.09
6094;BME280;19964;42.060;24.700;2023-03-23T05:23:08;97541.91;;;11.27;87.11
6094;BME280;19964;42.060;24.700;2023-03-23T05:25:35;97571.00;;;11.40;85.44
6094;BME280;19964;42.060;24.700;2023-03-23T05:28:05;97577.75;;;11.41;84.07
6094;BME280;19964;42.060;24.700;2023-03-23T05:30:32;97568.06;;;11.48;85.61
6094;BME280;19964;42.060;24.700;2023-03-23T05:32:59;97573.00;;;11.50;85.37
6094;BME280;19964;42.060;24.700;2023-03-23T05:35:28;97573.81;;;11.39;84.87
6094;BME280;19964;42.060;24.700;2023-03-23T05:37:55;97583.81;;;11.47;85.35
6094;BME280;19964;42.060;24.700;2023-03-23T05:40:23;97574.91;;;11.43;84.41
6094;BME280;19964;42.060;24.700;2023-03-23T05:42:51;97582.47;;;11.56;83.91
6094;BME280;19964;42.060;24.700;2023-03-23T05:45:20;97590.69;;;11.53;83.14
6094;BME280;19964;42.060;24.700;2023-03-23T05:47:48;97580.88;;;11.67;85.32
6094;BME280;19964;42.060;24.700;2023-03-23T05:50:15;97586.84;;;11.79;86.30
6094;BME280;19964;42.060;24.700;2023-03-23T05:52:44;97586.50;;;11.87;88.09
6094;BME280;19964;42.060;24.700;2023-03-23T05:55:11;97494.81;;;10.95;84.31
6094;BME280;19964;42.060;24.700;2023-03-23T05:57:39;97599.41;;;11.70;84.01
6094;BME280;19964;42.060;24.700;2023-03-23T06:00:07;97546.19;;;11.44;83.40
6094;BME280;19964;42.060;24.700;2023-03-23T06:02:46;97529.03;;;11.43;89.74
6094;BME280;19964;42.060;24.700;2023-03-23T06:05:13;97590.94;;;11.40;97.03
6094;BME280;19964;42.060;24.700;2023-03-23T06:07:41;97590.22;;;10.63;100.00
6094;BME280;19964;42.060;24.700;2023-03-23T06:10:10;97577.06;;;10.24;100.00
6094;BME280;19964;42.060;24.700;2023-03-23T06:12:38;97592.63;;;9.87;100.00
6094;BME280;19964;42.060;24.700;2023-03-23T06:15:06;97590.19;;;9.38;100.00
6094;BME280;19964;42.060;24.700;2023-03-23T06:17:34;97580.03;;;9.19;100.00
6094;BME280;19964;42.060;24.700;2023-03-23T06:20:02;97587.25;;;9.53;100.00
6094;BME280;19964;42.060;24.700;2023-03-23T06:22:37;97586.13;;;10.15;100.00
6094;BME280;19964;42.060;24.700;2023-03-23T06:25:05;97595.63;;;10.62;100.00
6094;BME280;19964;42.060;24.700;2023-03-23T06:27:34;97605.03;;;10.74;100.00
6094;BME280;19964;42.060;24.700;2023-03-23T06:30:02;97602.06;;;10.71;100.00
6094;BME280;19964;42.060;24.700;2023-03-23T06:32:30;97612.19;;;10.61;100.00
6094;BME280;19964;42.060;24.700;2023-03-23T06:34:57;97613.53;;;10.63;100.00
6094;BME280;19964;42.060;24.700;2023-03-23T06:37:24;97594.31;;;10.30;100.00
6094;BME280;19964;42.060;24.700;2023-03-23T06:39:51;97608.56;;;10.21;100.00
6094;BME280;19964;42.060;24.700;2023-03-23T06:42:18;97602.13;;;10.41;100.00
6094;BME280;19964;42.060;24.700;2023-03-23T06:44:46;97599.00;;;9.85;100.00
6094;BME280;19964;42.060;24.700;2023-03-23T06:47:13;97511.00;;;9.26;100.00
6094;BME280;19964;42.060;24.700;2023-03-23T06:49:40;97596.84;;;10.18;100.00
6094;BME280;19964;42.060;24.700;2023-03-23T06:52:06;97598.97;;;10.39;100.00
6094;BME280;19964;42.060;24.700;2023-03-23T06:54:33;97608.88;;;10.42;100.00
6094;BME280;19964;42.060;24.700;2023-03-23T06:57:00;97598.53;;;10.54;100.00
6094;BME280;19964;42.060;24.700;2023-03-23T06:59:27;97602.84;;;10.60;100.00
6094;BME280;19964;42.060;24.700;2023-03-23T07:01:55;97601.56;;;11.27;100.00
6094;BME280;19964;42.060;24.700;2023-03-23T07:04:22;97591.53;;;11.30;100.00
6094;BME280;19964;42.060;24.700;2023-03-23T07:06:50;97616.44;;;11.54;100.00
6094;BME280;19964;42.060;24.700;2023-03-23T07:09:17;97613.06;;;11.42;100.00
6094;BME280;19964;42.060;24.700;2023-03-23T07:11:43;97616.50;;;11.83;100.00
6094;BME280;19964;42.060;24.700;2023-03-23T07:14:12;97621.59;;;12.17;100.00
6094;BME280;19964;42.060;24.700;2023-03-23T07:16:40;97634.19;;;12.37;91.83
6094;BME280;19964;42.060;24.700;2023-03-23T07:19:09;97629.28;;;11.61;100.00
6094;BME280;19964;42.060;24.700;2023-03-23T07:21:35;97623.06;;;11.85;100.00
6094;BME280;19964;42.060;24.700;2023-03-23T07:24:03;97629.28;;;12.24;100.00
6094;BME280;19964;42.060;24.700;2023-03-23T07:26:29;97637.22;;;12.62;97.95
6094;BME280;19964;42.060;24.700;2023-03-23T07:28:57;97642.56;;;13.17;96.25
6094;BME280;19964;42.060;24.700;2023-03-23T07:31:24;97649.31;;;13.01;92.87
6094;BME280;19964;42.060;24.700;2023-03-23T07:33:50;97657.41;;;13.33;91.81
6094;BME280;19964;42.060;24.700;2023-03-23T07:36:19;97655.34;;;13.35;92.16
6094;BME280;19964;42.060;24.700;2023-03-23T07:38:46;97655.41;;;13.57;91.73
6094;BME280;19964;42.060;24.700;2023-03-23T07:41:13;97656.97;;;13.96;86.15
6094;BME280;19964;42.060;24.700;2023-03-23T07:43:40;97651.22;;;14.37;84.57
6094;BME280;19964;42.060;24.700;2023-03-23T07:46:07;97657.41;;;14.31;85.53
6094;BME280;19964;42.060;24.700;2023-03-23T07:48:35;97670.53;;;14.19;85.17
6094;BME280;19964;42.060;24.700;2023-03-23T07:51:03;97669.22;;;14.65;81.33
6094;BME280;19964;42.060;24.700;2023-03-23T07:53:32;97671.69;;;14.07;81.67
6094;BME280;19964;42.060;24.700;2023-03-23T07:55:58;97662.88;;;14.56;81.57
6094;BME280;19964;42.060;24.700;2023-03-23T07:58:25;97677.97;;;15.07;79.69
6094;BME280;19964;42.060;24.700;2023-03-23T08:00:53;97681.06;;;15.68;76.15
6094;BME280;19964;42.060;24.700;2023-03-23T08:03:22;97682.28;;;15.24;76.47
6094;BME280;19964;42.060;24.700;2023-03-23T08:05:49;97679.72;;;14.70;78.01
6094;BME280;19964;42.060;24.700;2023-03-23T08:08:16;97674.41;;;15.18;78.07
6094;BME280;19964;42.060;24.700;2023-03-23T08:10:45;97672.91;;;15.59;77.41
6094;BME280;19964;42.060;24.700;2023-03-23T08:13:11;97680.47;;;15.29;75.31
6094;BME280;19964;42.060;24.700;2023-03-23T08:15:38;97653.41;;;15.77;75.38
6094;BME280;19964;42.060;24.700;2023-03-23T08:18:05;97682.16;;;15.77;71.78
6094;BME280;19964;42.060;24.700;2023-03-23T08:20:32;97693.22;;;15.21;75.41
6094;BME280;19964;42.060;24.700;2023-03-23T08:22:59;97675.72;;;15.94;77.41
6094;BME280;19964;42.060;24.700;2023-03-23T08:25:28;97615.44;;;14.59;74.63
6094;BME280;19964;42.060;24.700;2023-03-23T08:27:58;97671.69;;;14.50;75.07
6094;BME280;19964;42.060;24.700;2023-03-23T08:30:28;97681.75;;;14.42;75.88
6094;BME280;19964;42.060;24.700;2023-03-23T08:32:56;97691.63;;;14.88;76.19
6094;BME280;19964;42.060;24.700;2023-03-23T08:35:23;97667.16;;;14.67;74.52
6094;BME280;19964;42.060;24.700;2023-03-23T08:37:50;97683.56;;;14.63;75.03
6094;BME280;19964;42.060;24.700;2023-03-23T08:40:19;97671.63;;;15.30;72.34
6094;BME280;19964;42.060;24.700;2023-03-23T08:42:47;97684.09;;;15.96;69.25
6094;BME280;19964;42.060;24.700;2023-03-23T08:45:21;97668.59;;;16.42;70.46
6094;BME280;19964;42.060;24.700;2023-03-23T08:47:50;97670.78;;;16.75;66.43
6094;BME280;19964;42.060;24.700;2023-03-23T08:50:22;97677.06;;;16.84;65.57
6094;BME280;19964;42.060;24.700;2023-03-23T08:52:50;97660.03;;;16.81;65.21
6094;BME280;19964;42.060;24.700;2023-03-23T08:55:18;97654.84;;;16.10;67.60
6094;BME280;19964;42.060;24.700;2023-03-23T08:57:45;97681.81;;;17.12;64.24
6094;BME280;19964;42.060;24.700;2023-03-23T09:00:14;97676.03;;;16.95;64.95
6094;BME280;19964;42.060;24.700;2023-03-23T09:02:47;97672.91;;;17.08;63.11
6094;BME280;19964;42.060;24.700;2023-03-23T09:05:15;97654.09;;;16.09;65.00
6094;BME280;19964;42.060;24.700;2023-03-23T09:07:44;97687.91;;;16.41;63.89
6094;BME280;19964;42.060;24.700;2023-03-23T09:10:12;97677.97;;;16.43;65.05
6094;BME280;19964;42.060;24.700;2023-03-23T09:12:39;97618.47;;;16.85;61.66
6094;BME280;19964;42.060;24.700;2023-03-23T09:15:07;97683.59;;;17.77;60.37
6094;BME280;19964;42.060;24.700;2023-03-23T09:17:35;97678.81;;;17.99;58.61
6094;BME280;19964;42.060;24.700;2023-03-23T09:20:05;97663.50;;;18.26;57.78
6094;BME280;19964;42.060;24.700;2023-03-23T09:22:36;97664.72;;;17.75;59.10
6094;BME280;19964;42.060;24.700;2023-03-23T09:25:04;97663.75;;;17.51;56.45
6094;BME280;19964;42.060;24.700;2023-03-23T09:27:31;97673.94;;;17.52;57.50
6094;BME280;19964;42.060;24.700;2023-03-23T09:29:58;97655.28;;;16.48;58.96
6094;BME280;19964;42.060;24.700;2023-03-23T09:32:26;97635.44;;;16.57;58.66
6094;BME280;19964;42.060;24.700;2023-03-23T09:34:53;97648.59;;;16.11;60.66
6094;BME280;19964;42.060;24.700;2023-03-23T09:37:22;97648.88;;;16.09;59.37
6094;BME280;19964;42.060;24.700;2023-03-23T09:39:49;97659.19;;;16.46;57.61
6094;BME280;19964;42.060;24.700;2023-03-23T09:42:36;97653.25;;;16.65;57.12
6094;BME280;19964;42.060;24.700;2023-03-23T09:45:12;97661.72;;;16.21;55.24
6094;BME280;19964;42.060;24.700;2023-03-23T09:47:48;97588.59;;;15.69;56.54
6094;BME280;19964;42.060;24.700;2023-03-23T09:50:18;97657.16;;;15.96;56.38
6094;BME280;19964;42.060;24.700;2023-03-23T09:52:58;97655.28;;;15.81;57.28
6094;BME280;19964;42.060;24.700;2023-03-23T09:55:26;97661.19;;;16.29;55.75
6094;BME280;19964;42.060;24.700;2023-03-23T09:57:58;97659.78;;;16.73;54.38
6094;BME280;19964;42.060;24.700;2023-03-23T10:00:30;97645.13;;;16.97;54.76
6094;BME280;19964;42.060;24.700;2023-03-23T10:03:00;97650.13;;;17.19;53.56
6094;BME280;19964;42.060;24.700;2023-03-23T10:05:32;97647.50;;;17.49;54.03
6094;BME280;19964;42.060;24.700;2023-03-23T10:08:03;97590.69;;;16.99;50.49
6094;BME280;19964;42.060;24.700;2023-03-23T10:10:45;97645.66;;;17.39;51.72
6094;BME280;19964;42.060;24.700;2023-03-23T10:13:20;97639.81;;;16.42;52.53
6094;BME280;19964;42.060;24.700;2023-03-23T10:15:49;97531.81;;;15.49;54.55
6094;BME280;19964;42.060;24.700;2023-03-23T10:18:19;97643.50;;;15.84;53.58
6094;BME280;19964;42.060;24.700;2023-03-23T10:20:50;97642.91;;;15.67;52.94
6094;BME280;19964;42.060;24.700;2023-03-23T10:23:52;97662.03;;;16.34;53.98
6094;BME280;19964;42.060;24.700;2023-03-23T10:26:29;97641.09;;;16.44;58.16
6094;BME280;19964;42.060;24.700;2023-03-23T10:29:07;97552.53;;;15.71;56.84
6094;BME280;19964;42.060;24.700;2023-03-23T10:31:38;97637.41;;;15.68;58.39
6094;BME280;19964;42.060;24.700;2023-03-23T10:34:11;97631.50;;;15.83;57.14
6094;BME280;19964;42.060;24.700;2023-03-23T10:36:48;97630.72;;;16.59;57.54
6094;BME280;19964;42.060;24.700;2023-03-23T10:39:20;97631.19;;;16.36;56.84
6094;BME280;19964;42.060;24.700;2023-03-23T10:41:48;97628.34;;;16.58;55.25
6094;BME280;19964;42.060;24.700;2023-03-23T10:44:16;97633.88;;;16.81;53.68
6094;BME280;19964;42.060;24.700;2023-03-23T10:46:45;97616.59;;;17.11;51.56
6094;BME280;19964;42.060;24.700;2023-03-23T10:49:18;97627.34;;;17.19;52.04
6094;BME280;19964;42.060;24.700;2023-03-23T10:51:57;97624.47;;;17.26;52.12
6094;BME280;19964;42.060;24.700;2023-03-23T10:54:35;97625.25;;;17.01;51.99
6094;BME280;19964;42.060;24.700;2023-03-23T10:57:13;97538.09;;;16.75;52.17
6094;BME280;19964;42.060;24.700;2023-03-23T10:59:46;97624.13;;;17.67;53.32
6094;BME280;19964;42.060;24.700;2023-03-23T11:02:17;97618.69;;;17.49;54.49
6094;BME280;19964;42.060;24.700;2023-03-23T11:04:56;97601.16;;;17.49;52.55
6094;BME280;19964;42.060;24.700;2023-03-23T11:07:27;97618.16;;;17.32;52.61
6094;BME280;19964;42.060;24.700;2023-03-23T11:09:59;97624.47;;;16.90;54.04
6094;BME280;19964;42.060;24.700;2023-03-23T11:12:33;97617.69;;;15.92;56.35
6094;BME280;19964;42.060;24.700;2023-03-23T11:15:15;97551.91;;;16.21;56.08
6094;BME280;19964;42.060;24.700;2023-03-23T11:17:55;97621.03;;;17.35;55.70
6094;BME280;19964;42.060;24.700;2023-03-23T11:20:22;97616.59;;;16.85;53.81
6094;BME280;19964;42.060;24.700;2023-03-23T11:22:49;97616.28;;;17.67;53.36
6094;BME280;19964;42.060;24.700;2023-03-23T11:25:17;97616.72;;;17.90;52.03
6094;BME280;19964;42.060;24.700;2023-03-23T11:27:44;97614.63;;;17.92;50.36
6094;BME280;19964;42.060;24.700;2023-03-23T11:30:21;97606.41;;;16.74;52.48
6094;BME280;19964;42.060;24.700;2023-03-23T11:32:50;97577.88;;;16.87;54.79
6094;BME280;19964;42.060;24.700;2023-03-23T11:35:21;97607.72;;;16.76;52.30
6094;BME280;19964;42.060;24.700;2023-03-23T11:37:51;97592.00;;;16.56;52.38
6094;BME280;19964;42.060;24.700;2023-03-23T11:40:22;97598.81;;;16.82;53.11
6094;BME280;19964;42.060;24.700;2023-03-23T11:42:56;97590.44;;;16.60;50.92
6094;BME280;19964;42.060;24.700;2023-03-23T11:45:34;97586.00;;;16.86;50.95
6094;BME280;19964;42.060;24.700;2023-03-23T11:48:11;97586.78;;;16.91;50.86
6094;BME280;19964;42.060;24.700;2023-03-23T11:50:49;97593.78;;;17.36;51.05
6094;BME280;19964;42.060;24.700;2023-03-23T11:53:24;97584.69;;;16.73;52.32
6094;BME280;19964;42.060;24.700;2023-03-23T11:56:02;97565.78;;;16.31;54.00
6094;BME280;19964;42.060;24.700;2023-03-23T11:58:33;97569.84;;;15.87;55.10
6094;BME280;19964;42.060;24.700;2023-03-23T12:01:05;97533.53;;;15.29;57.21
6094;BME280;19964;42.060;24.700;2023-03-23T12:04:03;97587.03;;;15.68;57.11
6094;BME280;19964;42.060;24.700;2023-03-23T12:06:38;97582.03;;;15.66;57.36
6094;BME280;19964;42.060;24.700;2023-03-23T12:09:19;97579.78;;;15.85;55.92
6094;BME280;19964;42.060;24.700;2023-03-23T12:11:57;97564.53;;;15.67;55.98
6094;BME280;19964;42.060;24.700;2023-03-23T12:14:30;97538.28;;;15.37;57.27
6094;BME280;19964;42.060;24.700;2023-03-23T12:17:07;97550.63;;;15.51;57.25
6094;BME280;19964;42.060;24.700;2023-03-23T12:19:42;97536.69;;;15.36;57.80
6094;BME280;19964;42.060;24.700;2023-03-23T12:22:20;97578.22;;;15.94;57.23
6094;BME280;19964;42.060;24.700;2023-03-23T12:24:59;97567.69;;;15.69;59.60
6094;BME280;19964;42.060;24.700;2023-03-23T12:27:35;97570.09;;;15.29;61.42
6094;BME280;19964;42.060;24.700;2023-03-23T12:30:18;97584.41;;;15.26;60.78
6094;BME280;19964;42.060;24.700;2023-03-23T12:33:00;97552.34;;;15.36;60.86
6094;BME280;19964;42.060;24.700;2023-03-23T12:35:35;97478.94;;;15.22;60.77
6094;BME280;19964;42.060;24.700;2023-03-23T12:38:19;97559.88;;;15.74;60.31
6094;BME280;19964;42.060;24.700;2023-03-23T12:40:52;97503.28;;;14.86;62.45
6094;BME280;19964;42.060;24.700;2023-03-23T12:43:29;97575.25;;;15.24;60.82
6094;BME280;19964;42.060;24.700;2023-03-23T12:46:24;97565.72;;;15.02;61.14
6094;BME280;19964;42.060;24.700;2023-03-23T12:49:05;97565.13;;;15.32;61.66
6094;BME280;19964;42.060;24.700;2023-03-23T12:51:38;97566.56;;;15.45;61.23
6094;BME280;19964;42.060;24.700;2023-03-23T12:54:12;97536.31;;;15.12;61.43
6094;BME280;19964;42.060;24.700;2023-03-23T12:56:47;97472.75;;;14.86;61.13
6094;BME280;19964;42.060;24.700;2023-03-23T12:59:21;97556.22;;;15.75;60.95
6094;BME280;19964;42.060;24.700;2023-03-23T13:01:54;97562.63;;;16.09;60.63
6094;BME280;19964;42.060;24.700;2023-03-23T13:04:26;97293.75;;;14.18;59.75
6094;BME280;19964;42.060;24.700;2023-03-23T13:07:00;97559.88;;;15.74;60.01
6094;BME280;19964;42.060;24.700;2023-03-23T13:09:47;97520.44;;;15.80;58.62
6094;BME280;19964;42.060;24.700;2023-03-23T13:12:15;97543.03;;;16.17;57.23
6094;BME280;19964;42.060;24.700;2023-03-23T13:14:50;97541.53;;;16.56;56.50
6094;BME280;19964;42.060;24.700;2023-03-23T13:17:28;97550.38;;;16.40;57.83
6094;BME280;19964;42.060;24.700;2023-03-23T13:20:15;97553.97;;;16.14;58.35
6094;BME280;19964;42.060;24.700;2023-03-23T13:22:49;97548.19;;;15.91;59.59
6094;BME280;19964;42.060;24.700;2023-03-23T13:25:24;97502.00;;;15.40;60.18